createdAt,value
2024-05-09T00:00:01.127Z,1382.00
2024-05-09T00:01:00.798Z,1380.00
2024-05-09T00:02:00.824Z,1383.00
2024-05-09T00:03:00.884Z,1380.00
2024-05-09T00:04:00.848Z,1383.00
2024-05-09T00:05:00.943Z,1383.00
2024-05-09T00:06:01.029Z,1385.00
2024-05-09T00:07:00.792Z,1379.00
2024-05-09T00:08:00.957Z,1375.00
2024-05-09T00:09:00.786Z,1382.00
2024-05-09T00:10:00.788Z,1376.00
2024-05-09T00:11:00.872Z,1377.00
2024-05-09T00:12:00.930Z,1382.00
2024-05-09T00:13:00.788Z,1378.00
2024-05-09T00:14:00.882Z,1376.00
2024-05-09T00:15:01.262Z,1381.00
2024-05-09T00:16:00.810Z,1373.00
2024-05-09T00:17:00.846Z,1377.00
2024-05-09T00:18:01.324Z,1375.00
2024-05-09T00:19:00.916Z,1369.00
2024-05-09T00:20:00.832Z,1377.00
2024-05-09T00:21:00.935Z,1372.00
2024-05-09T00:22:00.799Z,1362.00
2024-05-09T00:23:00.833Z,1368.00
2024-05-09T00:24:00.797Z,1374.00
2024-05-09T00:25:00.805Z,1362.00
2024-05-09T00:26:00.911Z,1363.00
2024-05-09T00:27:00.809Z,1364.00
2024-05-09T00:28:00.929Z,1367.00
2024-05-09T00:29:00.852Z,1367.00
2024-05-09T00:30:01.178Z,1360.00
2024-05-09T00:31:00.820Z,1356.00
2024-05-09T00:32:00.890Z,1355.00
2024-05-09T00:33:01.117Z,1355.00
2024-05-09T00:34:01.207Z,1360.00
2024-05-09T00:35:01.060Z,1367.00
2024-05-09T00:36:00.814Z,1363.00
2024-05-09T00:37:00.824Z,1353.00
2024-05-09T00:38:01.101Z,1348.00
2024-05-09T00:39:00.828Z,1357.00
2024-05-09T00:40:00.830Z,1358.00
2024-05-09T00:41:00.989Z,1354.00
2024-05-09T00:42:00.830Z,1351.00
2024-05-09T00:43:00.817Z,1351.00
2024-05-09T00:44:00.842Z,1348.00
2024-05-09T00:45:01.192Z,1352.00
2024-05-09T00:46:00.867Z,1347.00
2024-05-09T00:47:00.908Z,1340.00
2024-05-09T00:48:01.222Z,1348.00
2024-05-09T00:49:00.890Z,1350.00
2024-05-09T00:50:00.871Z,1350.00
2024-05-09T00:51:00.917Z,1346.00
2024-05-09T00:52:00.850Z,1348.00
2024-05-09T00:53:00.890Z,1340.00
2024-05-09T00:54:00.843Z,1335.00
2024-05-09T00:55:00.851Z,1346.00
2024-05-09T00:56:00.889Z,1345.00
2024-05-09T00:57:00.853Z,1337.00
2024-05-09T00:58:00.878Z,1349.00
2024-05-09T00:59:00.925Z,1349.00
2024-05-09T01:00:01.309Z,1347.00
2024-05-09T01:01:00.899Z,1345.00
2024-05-09T01:02:00.967Z,1343.00
2024-05-09T01:03:01.053Z,1327.00
2024-05-09T01:04:00.936Z,1345.00
2024-05-09T01:05:00.990Z,1336.00
2024-05-09T01:06:00.959Z,1351.00
2024-05-09T01:07:00.957Z,1336.00
2024-05-09T01:08:01.133Z,1341.00
2024-05-09T01:09:01.014Z,1333.00
2024-05-09T01:10:01.048Z,1329.00
2024-05-09T01:11:01.182Z,1328.00
2024-05-09T01:12:01.223Z,1339.00
2024-05-09T01:13:01.168Z,1326.00
2024-05-09T01:14:01.263Z,1332.00
2024-05-09T01:15:01.227Z,1329.00
2024-05-09T01:16:01.337Z,1341.00
2024-05-09T01:17:01.326Z,1320.00
2024-05-09T01:18:01.678Z,1325.00
2024-05-09T01:19:01.508Z,1328.00
2024-05-09T01:20:01.454Z,1326.00
2024-05-09T01:21:01.535Z,1319.00
2024-05-09T01:22:01.513Z,1328.00
2024-05-09T01:23:01.598Z,1321.00
2024-05-09T01:24:01.592Z,1318.00
2024-05-09T01:25:01.702Z,1319.00
2024-05-09T01:26:01.719Z,1322.00
2024-05-09T01:27:01.713Z,1321.00
2024-05-09T01:28:01.772Z,1324.00
2024-05-09T01:29:01.902Z,1307.00
2024-05-09T01:30:01.864Z,1321.00
2024-05-09T01:31:01.870Z,1319.00
2024-05-09T01:32:02.024Z,1315.00
2024-05-09T01:33:02.212Z,1315.00
2024-05-09T01:34:02.050Z,1319.00
2024-05-09T01:35:02.094Z,1312.00
2024-05-09T01:36:02.066Z,1316.00
2024-05-09T01:37:02.086Z,1308.00
2024-05-09T01:38:02.362Z,1313.00
2024-05-09T01:39:02.156Z,1302.00
2024-05-09T01:40:02.210Z,1309.00
2024-05-09T01:41:02.364Z,1303.00
2024-05-09T01:42:02.249Z,1299.00
2024-05-09T01:43:02.285Z,1312.00
2024-05-09T01:44:02.374Z,1298.00
2024-05-09T01:45:02.351Z,1300.00
2024-05-09T01:46:02.392Z,1308.00
2024-05-09T01:47:02.494Z,1311.00
2024-05-09T01:48:03.050Z,1306.00
2024-05-09T01:49:02.554Z,1299.00
2024-05-09T01:50:03.309Z,1297.00
2024-05-09T01:51:02.607Z,1293.00
2024-05-09T01:52:02.630Z,1301.00
2024-05-09T01:53:02.646Z,1292.00
2024-05-09T01:54:02.651Z,1294.00
2024-05-09T01:55:05.843Z,1297.00
2024-05-09T01:56:02.728Z,1297.00
2024-05-09T01:57:02.714Z,1298.00
2024-05-09T01:58:02.698Z,1298.00
2024-05-09T01:59:02.729Z,1293.00
2024-05-09T02:00:03.007Z,1293.00
2024-05-09T02:01:02.749Z,1290.00
2024-05-09T02:02:02.842Z,1300.00
2024-05-09T02:03:02.913Z,1295.00
2024-05-09T02:04:03.076Z,1293.00
2024-05-09T02:05:02.909Z,1294.00
2024-05-09T02:06:02.886Z,1292.00
2024-05-09T02:07:02.715Z,1292.00
2024-05-09T02:08:02.755Z,1298.00
2024-05-09T02:09:02.713Z,1284.00
2024-05-09T02:10:06.493Z,1295.00
2024-05-09T02:11:03.960Z,1295.00
2024-05-09T02:12:02.848Z,1295.00
2024-05-09T02:13:02.733Z,1297.00
2024-05-09T02:14:02.852Z,1291.00
2024-05-09T02:15:02.723Z,1285.00
2024-05-09T02:16:02.741Z,1283.00
2024-05-09T02:17:02.769Z,1295.00
2024-05-09T02:18:02.849Z,1281.00
2024-05-09T02:19:02.889Z,1285.00
2024-05-09T02:20:02.914Z,1282.00
2024-05-09T02:21:02.807Z,1286.00
2024-05-09T02:22:02.753Z,1276.00
2024-05-09T02:23:02.906Z,1286.00
2024-05-09T02:24:02.736Z,1281.00
2024-05-09T02:25:02.734Z,1276.00
2024-05-09T02:26:02.796Z,1279.00
2024-05-09T02:27:02.746Z,1271.00
2024-05-09T02:28:02.788Z,1283.00
2024-05-09T02:29:02.844Z,1270.00
2024-05-09T02:30:03.606Z,1272.00
2024-05-09T02:31:02.885Z,1276.00
2024-05-09T02:32:02.990Z,1262.00
2024-05-09T02:33:03.194Z,1279.00
2024-05-09T02:34:03.355Z,1263.00
2024-05-09T02:35:03.171Z,1269.00
2024-05-09T02:36:03.077Z,1263.00
2024-05-09T02:37:03.117Z,1271.00
2024-05-09T02:38:03.345Z,1272.00
2024-05-09T02:39:03.185Z,1262.00
2024-05-09T02:40:03.435Z,1264.00
2024-05-09T02:41:03.269Z,1264.00
2024-05-09T02:42:03.284Z,1257.00
2024-05-09T02:43:03.324Z,1255.00
2024-05-09T02:44:03.384Z,1260.00
2024-05-09T02:45:03.389Z,1260.00
2024-05-09T02:46:03.432Z,1261.00
2024-05-09T02:47:03.527Z,1261.00
2024-05-09T02:48:03.762Z,1252.00
2024-05-09T02:49:03.634Z,1256.00
2024-05-09T02:50:05.889Z,1251.00
2024-05-09T02:51:03.908Z,1253.00
2024-05-09T02:52:03.722Z,1250.00
2024-05-09T02:53:03.792Z,1245.00
2024-05-09T02:54:03.788Z,1248.00
2024-05-09T02:55:03.852Z,1254.00
2024-05-09T02:56:03.911Z,1257.00
2024-05-09T02:57:03.942Z,1248.00
2024-05-09T02:58:03.976Z,1255.00
2024-05-09T02:59:04.006Z,1243.00
2024-05-09T03:00:06.208Z,1251.00
2024-05-09T03:01:04.038Z,1259.00
2024-05-09T03:02:04.183Z,1254.00
2024-05-09T03:03:04.301Z,1253.00
2024-05-09T03:04:04.111Z,1255.00
2024-05-09T03:05:04.101Z,1245.00
2024-05-09T03:06:04.013Z,1243.00
2024-05-09T03:07:04.034Z,1245.00
2024-05-09T03:08:04.239Z,1244.00
2024-05-09T03:09:04.033Z,1235.00
2024-05-09T03:10:05.728Z,1240.00
2024-05-09T03:11:04.096Z,1240.00
2024-05-09T03:12:04.120Z,1240.00
2024-05-09T03:13:04.023Z,1241.00
2024-05-09T03:14:04.089Z,1243.00
2024-05-09T03:15:04.025Z,1239.00
2024-05-09T03:16:04.044Z,1239.00
2024-05-09T03:17:04.082Z,1241.00
2024-05-09T03:18:04.204Z,1241.00
2024-05-09T03:19:04.155Z,1230.00
2024-05-09T03:20:05.245Z,1234.00
2024-05-09T03:21:04.214Z,1235.00
2024-05-09T03:22:04.037Z,1236.00
2024-05-09T03:23:05.265Z,1235.00
2024-05-09T03:24:04.036Z,1245.00
2024-05-09T03:25:04.046Z,1236.00
2024-05-09T03:26:06.082Z,1236.00
2024-05-09T03:27:04.045Z,1231.00
2024-05-09T03:28:04.122Z,1237.00
2024-05-09T03:29:04.103Z,1230.00
2024-05-09T03:30:07.212Z,1236.00
2024-05-09T03:31:04.047Z,1237.00
2024-05-09T03:32:04.196Z,1238.00
2024-05-09T03:33:04.299Z,1233.00
2024-05-09T03:34:04.242Z,1230.00
2024-05-09T03:35:04.121Z,1232.00
2024-05-09T03:36:05.049Z,1227.00
2024-05-09T03:37:04.058Z,1235.00
2024-05-09T03:38:04.221Z,1231.00
2024-05-09T03:39:04.070Z,1221.00
2024-05-09T03:40:07.121Z,1237.00
2024-05-09T03:41:04.092Z,1233.00
2024-05-09T03:42:04.091Z,1225.00
2024-05-09T03:43:04.081Z,1225.00
2024-05-09T03:44:04.112Z,1227.00
2024-05-09T03:45:04.073Z,1221.00
2024-05-09T03:46:04.071Z,1216.00
2024-05-09T03:47:04.128Z,1220.00
2024-05-09T03:48:04.322Z,1214.00
2024-05-09T03:49:04.105Z,1209.00
2024-05-09T03:50:05.577Z,1215.00
2024-05-09T03:51:13.012Z,600.00
2024-05-09T03:52:12.899Z,600.00
2024-05-09T03:53:13.015Z,600.00
2024-05-09T03:54:12.900Z,600.00
2024-05-09T03:55:12.908Z,600.00
2024-05-09T03:56:12.937Z,604.00
2024-05-09T03:57:12.910Z,600.00
2024-05-09T03:58:12.988Z,601.00
2024-05-09T03:59:12.957Z,601.00
2024-05-09T04:00:18.205Z,602.00
2024-05-09T04:01:13.942Z,602.00
2024-05-09T04:02:13.005Z,602.00
2024-05-09T04:03:13.611Z,603.00
2024-05-09T04:04:12.993Z,601.00
2024-05-09T04:05:12.978Z,599.00
2024-05-09T04:06:12.925Z,600.00
2024-05-09T04:07:12.928Z,606.00
2024-05-09T04:08:13.087Z,600.00
2024-05-09T04:09:12.919Z,600.00
2024-05-09T04:10:21.104Z,605.00
2024-05-09T04:11:14.174Z,605.00
2024-05-09T04:12:12.981Z,604.00
2024-05-09T04:13:12.944Z,604.00
2024-05-09T04:14:12.969Z,604.00
2024-05-09T04:15:13.670Z,602.00
2024-05-09T04:16:12.933Z,605.00
2024-05-09T04:17:12.990Z,600.00
2024-05-09T04:18:13.051Z,600.00
2024-05-09T04:19:13.079Z,600.00
2024-05-09T04:20:21.390Z,604.00
2024-05-09T04:21:13.990Z,605.00
2024-05-09T04:22:12.975Z,605.00
2024-05-09T04:23:13.701Z,604.00
2024-05-09T04:24:12.950Z,604.00
2024-05-09T04:25:12.943Z,606.00
2024-05-09T04:26:13.068Z,602.00
2024-05-09T04:27:12.972Z,605.00
2024-05-09T04:28:12.963Z,603.00
2024-05-09T04:29:13.002Z,605.00
2024-05-09T04:30:21.592Z,601.00
2024-05-09T04:31:24.983Z,600.00
2024-05-09T04:32:25.121Z,600.00
2024-05-09T04:33:25.342Z,600.00
2024-05-09T04:34:25.050Z,600.00
2024-05-09T04:35:25.057Z,600.00
2024-05-09T04:36:24.973Z,601.00
2024-05-09T04:37:25.004Z,601.00
2024-05-09T04:38:24.994Z,599.00
2024-05-09T04:39:24.977Z,603.00
2024-05-09T04:40:31.631Z,601.00
2024-05-09T04:41:26.040Z,601.00
2024-05-09T04:42:24.988Z,601.00
2024-05-09T04:43:24.987Z,601.00
2024-05-09T04:44:25.009Z,595.00
2024-05-09T04:45:24.999Z,599.00
2024-05-09T04:46:25.005Z,602.00
2024-05-09T04:47:25.256Z,602.00
2024-05-09T04:48:25.170Z,603.00
2024-05-09T04:49:25.230Z,601.00
2024-05-09T04:50:33.380Z,602.00
2024-05-09T04:51:26.012Z,602.00
2024-05-09T04:52:25.017Z,603.00
2024-05-09T04:53:25.059Z,601.00
2024-05-09T04:54:33.804Z,601.00
2024-05-09T04:55:26.029Z,602.00
2024-05-09T04:56:25.062Z,603.00
2024-05-09T04:57:25.016Z,603.00
2024-05-09T04:58:25.025Z,601.00
2024-05-09T04:59:25.136Z,599.00
2024-05-09T05:00:32.025Z,600.00
2024-05-09T05:01:26.067Z,600.00
2024-05-09T05:02:25.147Z,600.00
2024-05-09T05:03:25.286Z,601.00
2024-05-09T05:04:25.084Z,600.00
2024-05-09T05:05:25.073Z,599.00
2024-05-09T05:06:25.043Z,606.00
2024-05-09T05:07:25.035Z,604.00
2024-05-09T05:08:25.111Z,605.00
2024-05-09T05:09:25.042Z,606.00
2024-05-09T05:10:33.210Z,601.00
2024-05-09T05:11:26.170Z,602.00
2024-05-09T05:12:25.187Z,602.00
2024-05-09T05:13:25.359Z,604.00
2024-05-09T05:14:25.111Z,604.00
2024-05-09T05:15:25.063Z,603.00
2024-05-09T05:16:25.061Z,604.00
2024-05-09T05:17:25.124Z,600.00
2024-05-09T05:18:25.133Z,600.00
2024-05-09T05:19:25.198Z,602.00
2024-05-09T05:20:32.566Z,601.00
2024-05-09T05:21:26.244Z,601.00
2024-05-09T05:22:25.081Z,602.00
2024-05-09T05:23:25.135Z,602.00
2024-05-09T05:24:25.084Z,603.00
2024-05-09T05:25:25.080Z,596.00
2024-05-09T05:26:25.126Z,602.00
2024-05-09T05:27:25.086Z,604.00
2024-05-09T05:28:25.085Z,601.00
2024-05-09T05:29:25.129Z,600.00
2024-05-09T05:30:29.224Z,602.00
2024-05-09T05:31:26.136Z,602.00
2024-05-09T05:32:25.225Z,603.00
2024-05-09T05:33:25.228Z,604.00
2024-05-09T05:34:25.092Z,604.00
2024-05-09T05:35:25.225Z,605.00
2024-05-09T05:36:25.106Z,605.00
2024-05-09T05:37:25.100Z,603.00
2024-05-09T05:38:28.081Z,600.00
2024-05-09T05:39:25.111Z,600.00
2024-05-09T05:40:32.836Z,601.00
2024-05-09T05:41:26.203Z,600.00
2024-05-09T05:42:25.128Z,601.00
2024-05-09T05:43:25.124Z,602.00
2024-05-09T05:44:25.154Z,601.00
2024-05-09T05:45:25.119Z,604.00
2024-05-09T05:46:25.117Z,605.00
2024-05-09T05:47:25.271Z,602.00
2024-05-09T05:48:25.242Z,605.00
2024-05-09T05:49:25.257Z,600.00
2024-05-09T05:50:32.441Z,606.00
2024-05-09T05:51:26.180Z,606.00
2024-05-09T05:52:25.148Z,607.00
2024-05-09T05:53:25.220Z,606.00
2024-05-09T05:54:25.149Z,605.00
2024-05-09T05:55:25.138Z,605.00
2024-05-09T05:56:25.227Z,606.00
2024-05-09T05:57:25.161Z,606.00
2024-05-09T05:58:25.141Z,606.00
2024-05-09T05:59:25.192Z,602.00
2024-05-09T06:00:34.106Z,602.00
2024-05-09T06:01:26.179Z,602.00
2024-05-09T06:02:25.231Z,603.00
2024-05-09T06:03:25.469Z,604.00
2024-05-09T06:04:25.178Z,604.00
2024-05-09T06:05:27.231Z,606.00
2024-05-09T06:06:25.246Z,603.00
2024-05-09T06:07:25.258Z,604.00
2024-05-09T06:08:28.869Z,603.00
2024-05-09T06:09:25.272Z,604.00
2024-05-09T06:10:29.572Z,604.00
2024-05-09T06:11:26.358Z,604.00
2024-05-09T06:12:25.409Z,604.00
2024-05-09T06:13:25.277Z,604.00
2024-05-09T06:14:25.286Z,603.00
2024-05-09T06:15:25.281Z,602.00
2024-05-09T06:16:25.282Z,603.00
2024-05-09T06:17:25.366Z,604.00
2024-05-09T06:18:25.474Z,603.00
2024-05-09T06:19:25.936Z,605.00
2024-05-09T06:20:34.307Z,604.00
2024-05-09T06:21:26.352Z,604.00
2024-05-09T06:22:25.290Z,604.00
2024-05-09T06:23:25.338Z,605.00
2024-05-09T06:24:25.312Z,606.00
2024-05-09T06:25:25.290Z,603.00
2024-05-09T06:26:25.365Z,607.00
2024-05-09T06:27:25.294Z,604.00
2024-05-09T06:28:25.313Z,605.00
2024-05-09T06:29:25.330Z,603.00
2024-05-09T06:30:30.841Z,603.00
2024-05-09T06:31:26.327Z,603.00
2024-05-09T06:32:25.386Z,604.00
2024-05-09T06:33:25.542Z,603.00
2024-05-09T06:34:25.387Z,603.00
2024-05-09T06:35:25.385Z,603.00
2024-05-09T06:36:25.320Z,602.00
2024-05-09T06:37:25.319Z,603.00
2024-05-09T06:38:25.361Z,603.00
2024-05-09T06:39:25.309Z,603.00
2024-05-09T06:40:29.877Z,600.00
2024-05-09T06:41:26.437Z,600.00
2024-05-09T06:42:25.322Z,600.00
2024-05-09T06:43:25.327Z,601.00
2024-05-09T06:44:25.376Z,600.00
2024-05-09T06:45:25.331Z,602.00
2024-05-09T06:46:25.327Z,601.00
2024-05-09T06:47:25.424Z,603.00
2024-05-09T06:48:25.417Z,604.00
2024-05-09T06:49:25.440Z,603.00
2024-05-09T06:50:28.368Z,603.00
2024-05-09T06:51:26.343Z,603.00
2024-05-09T06:52:25.347Z,604.00
2024-05-09T06:53:25.375Z,604.00
2024-05-09T06:54:25.342Z,603.00
2024-05-09T06:55:25.355Z,600.00
2024-05-09T06:56:25.436Z,600.00
2024-05-09T06:57:25.347Z,606.00
2024-05-09T06:58:25.347Z,603.00
2024-05-09T06:59:25.447Z,602.00
2024-05-09T07:00:34.378Z,601.00
2024-05-09T07:01:26.391Z,601.00
2024-05-09T07:02:25.481Z,602.00
2024-05-09T07:03:25.777Z,602.00
2024-05-09T07:04:25.463Z,602.00
2024-05-09T07:05:25.503Z,601.00
2024-05-09T07:06:25.372Z,602.00
2024-05-09T07:07:25.355Z,606.00
2024-05-09T07:08:25.394Z,603.00
2024-05-09T07:09:25.361Z,602.00
2024-05-09T07:10:32.405Z,601.00
2024-05-09T07:11:26.544Z,601.00
2024-05-09T07:12:25.477Z,601.00
2024-05-09T07:13:25.385Z,602.00
2024-05-09T07:14:25.404Z,603.00
2024-05-09T07:15:25.371Z,600.00
2024-05-09T07:16:25.372Z,604.00
2024-05-09T07:17:25.444Z,603.00
2024-05-09T07:18:25.587Z,603.00
2024-05-09T07:19:25.421Z,602.00
2024-05-09T07:20:33.743Z,602.00
2024-05-09T07:21:26.472Z,603.00
2024-05-09T07:22:25.385Z,603.00
2024-05-09T07:23:25.485Z,604.00
2024-05-09T07:24:25.388Z,602.00
2024-05-09T07:25:25.393Z,600.00
2024-05-09T07:26:25.437Z,602.00
2024-05-09T07:27:25.393Z,605.00
2024-05-09T07:28:25.403Z,605.00
2024-05-09T07:29:25.475Z,605.00
2024-05-09T07:30:32.819Z,605.00
2024-05-09T07:31:26.417Z,605.00
2024-05-09T07:32:25.497Z,605.00
2024-05-09T07:33:25.555Z,606.00
2024-05-09T07:34:25.590Z,606.00
2024-05-09T07:35:25.465Z,605.00
2024-05-09T07:36:25.404Z,603.00
2024-05-09T07:37:25.401Z,606.00
2024-05-09T07:38:25.432Z,603.00
2024-05-09T07:39:25.434Z,603.00
2024-05-09T07:40:32.995Z,602.00
2024-05-09T07:41:26.532Z,602.00
2024-05-09T07:42:25.509Z,602.00
2024-05-09T07:43:25.503Z,602.00
2024-05-09T07:44:25.518Z,596.00
2024-05-09T07:45:43.255Z,601.00
2024-05-09T07:47:20.762Z,600.00
2024-05-09T07:50:00.923Z,602.00
2024-05-09T07:53:32.286Z,602.00
2024-05-09T07:53:39.751Z,602.00
2024-05-09T07:54:26.623Z,602.00
2024-05-09T07:55:25.718Z,603.00
2024-05-09T07:56:26.253Z,604.00
2024-05-09T07:57:25.581Z,603.00
2024-05-09T07:58:25.545Z,605.00
2024-05-09T07:59:25.534Z,604.00
2024-05-09T08:00:31.062Z,605.00
2024-05-09T08:01:27.044Z,605.00
2024-05-09T08:02:25.697Z,605.00
2024-05-09T08:03:25.636Z,604.00
2024-05-09T08:04:26.785Z,604.00
2024-05-09T08:05:25.696Z,601.00
2024-05-09T08:06:25.585Z,600.00
2024-05-09T08:07:25.554Z,605.00
2024-05-09T08:08:25.570Z,600.00
2024-05-09T08:09:25.562Z,603.00
2024-05-09T08:10:28.903Z,601.00
2024-05-09T08:11:25.594Z,601.00
2024-05-09T08:12:25.579Z,600.00
2024-05-09T08:13:25.574Z,601.00
2024-05-09T08:14:25.579Z,603.00
2024-05-09T08:15:25.586Z,604.00
2024-05-09T08:16:25.639Z,603.00
2024-05-09T08:17:25.639Z,603.00
2024-05-09T08:18:25.640Z,604.00
2024-05-09T08:19:25.639Z,604.00
2024-05-09T08:20:31.109Z,606.00
2024-05-09T08:21:26.713Z,606.00
2024-05-09T08:22:25.581Z,606.00
2024-05-09T08:23:25.599Z,607.00
2024-05-09T08:24:25.593Z,607.00
2024-05-09T08:25:25.713Z,604.00
2024-05-09T08:26:25.593Z,606.00
2024-05-09T08:27:25.602Z,604.00
2024-05-09T08:28:25.666Z,607.00
2024-05-09T08:29:25.595Z,606.00
2024-05-09T08:30:32.802Z,610.00
2024-05-09T08:31:26.766Z,606.00
2024-05-09T08:32:25.635Z,605.00
2024-05-09T08:33:25.783Z,605.00
2024-05-09T08:34:25.705Z,608.00
2024-05-09T08:35:25.679Z,606.00
2024-05-09T08:36:25.620Z,609.00
2024-05-09T08:37:29.462Z,605.00
2024-05-09T08:38:26.658Z,606.00
2024-05-09T08:39:25.649Z,605.00
2024-05-09T08:40:33.298Z,607.00
2024-05-09T08:41:26.649Z,605.00
2024-05-09T08:42:25.652Z,607.00
2024-05-09T08:43:25.685Z,606.00
2024-05-09T08:44:25.657Z,608.00
2024-05-09T08:45:25.746Z,607.00
2024-05-09T08:46:25.815Z,605.00
2024-05-09T08:47:25.771Z,601.00
2024-05-09T08:48:25.807Z,601.00
2024-05-09T08:49:25.779Z,601.00
2024-05-09T08:50:32.350Z,605.00
2024-05-09T08:51:26.785Z,605.00
2024-05-09T08:52:25.664Z,604.00
2024-05-09T08:53:25.670Z,601.00
2024-05-09T08:54:25.763Z,605.00
2024-05-09T08:55:25.704Z,604.00
2024-05-09T08:56:25.675Z,600.00
2024-05-09T08:57:25.676Z,605.00
2024-05-09T08:58:25.804Z,604.00
2024-05-09T08:59:25.680Z,604.00
2024-05-09T09:00:33.942Z,604.00
2024-05-09T09:01:26.772Z,604.00
2024-05-09T09:02:25.806Z,605.00
2024-05-09T09:03:25.725Z,604.00
2024-05-09T09:04:25.837Z,606.00
2024-05-09T09:05:25.851Z,604.00
2024-05-09T09:06:25.702Z,602.00
2024-05-09T09:07:25.811Z,603.00
2024-05-09T09:08:25.707Z,602.00
2024-05-09T09:09:25.703Z,601.00
2024-05-09T09:10:31.781Z,606.00
2024-05-09T09:11:26.719Z,606.00
2024-05-09T09:12:25.710Z,606.00
2024-05-09T09:13:25.718Z,607.00
2024-05-09T09:14:25.722Z,605.00
2024-05-09T09:15:25.717Z,604.00
2024-05-09T09:16:25.765Z,603.00
2024-05-09T09:17:25.840Z,603.00
2024-05-09T09:18:25.909Z,604.00
2024-05-09T09:19:25.979Z,601.00
2024-05-09T09:20:33.299Z,600.00
2024-05-09T09:21:26.870Z,600.00
2024-05-09T09:22:25.744Z,601.00
2024-05-09T09:23:25.743Z,601.00
2024-05-09T09:24:25.742Z,602.00
2024-05-09T09:25:25.746Z,605.00
2024-05-09T09:26:25.761Z,601.00
2024-05-09T09:27:25.749Z,603.00
2024-05-09T09:28:25.746Z,603.00
2024-05-09T09:29:25.763Z,601.00
2024-05-09T09:30:34.813Z,602.00
2024-05-09T09:31:26.889Z,603.00
2024-05-09T09:32:25.877Z,603.00
2024-05-09T09:33:25.821Z,604.00
2024-05-09T09:34:25.882Z,604.00
2024-05-09T09:35:25.757Z,605.00
2024-05-09T09:36:25.780Z,606.00
2024-05-09T09:37:25.775Z,604.00
2024-05-09T09:38:25.776Z,603.00
2024-05-09T09:39:25.771Z,604.00
2024-05-09T09:40:31.707Z,602.00
2024-05-09T09:41:26.809Z,602.00
2024-05-09T09:42:25.809Z,602.00
2024-05-09T09:43:25.849Z,602.00
2024-05-09T09:44:25.825Z,603.00
2024-05-09T09:45:25.829Z,602.00
2024-05-09T09:46:25.951Z,602.00
2024-05-09T09:47:26.031Z,602.00
2024-05-09T09:48:25.878Z,602.00
2024-05-09T09:49:25.861Z,600.00
2024-05-09T09:50:33.324Z,602.00
2024-05-09T09:51:26.846Z,602.00
2024-05-09T09:52:25.846Z,602.00
2024-05-09T09:53:25.835Z,603.00
2024-05-09T09:54:25.827Z,602.00
2024-05-09T09:55:25.903Z,604.00
2024-05-09T09:56:25.832Z,602.00
2024-05-09T09:57:25.831Z,602.00
2024-05-09T09:58:26.000Z,601.00
2024-05-09T09:59:25.844Z,600.00
2024-05-09T10:00:30.683Z,601.00
2024-05-09T10:01:26.926Z,601.00
2024-05-09T10:02:25.971Z,601.00
2024-05-09T10:03:26.089Z,602.00
2024-05-09T10:04:26.065Z,603.00
2024-05-09T10:05:26.236Z,604.00
2024-05-09T10:06:25.857Z,602.00
2024-05-09T10:07:25.856Z,602.00
2024-05-09T10:08:25.849Z,605.00
2024-05-09T10:09:25.862Z,601.00
2024-05-09T10:10:31.812Z,601.00
2024-05-09T10:11:26.984Z,601.00
2024-05-09T10:12:25.905Z,602.00
2024-05-09T10:13:25.891Z,602.00
2024-05-09T10:14:25.878Z,603.00
2024-05-09T10:15:25.884Z,600.00
2024-05-09T10:16:25.985Z,602.00
2024-05-09T10:17:25.945Z,602.00
2024-05-09T10:18:29.208Z,604.00
2024-05-09T10:19:27.003Z,604.00
2024-05-09T10:20:30.834Z,604.00
2024-05-09T10:21:26.889Z,604.00
2024-05-09T10:22:25.927Z,605.00
2024-05-09T10:23:25.889Z,605.00
2024-05-09T10:24:25.896Z,605.00
2024-05-09T10:25:25.956Z,607.00
2024-05-09T10:26:25.895Z,606.00
2024-05-09T10:27:25.902Z,605.00
2024-05-09T10:28:25.904Z,601.00
2024-05-09T10:29:25.916Z,605.00
2024-05-09T10:30:33.469Z,604.00
2024-05-09T10:31:26.918Z,604.00
2024-05-09T10:32:26.003Z,605.00
2024-05-09T10:33:26.015Z,605.00
2024-05-09T10:34:26.251Z,605.00
2024-05-09T10:35:25.920Z,603.00
2024-05-09T10:36:25.919Z,605.00
2024-05-09T10:37:25.990Z,604.00
2024-05-09T10:38:25.918Z,604.00
2024-05-09T10:39:25.962Z,606.00
2024-05-09T10:40:31.062Z,601.00
2024-05-09T10:41:26.991Z,601.00
2024-05-09T10:42:26.001Z,602.00
2024-05-09T10:43:26.011Z,602.00
2024-05-09T10:44:25.985Z,603.00
2024-05-09T10:45:26.005Z,603.00
2024-05-09T10:46:26.017Z,604.00
2024-05-09T10:47:26.086Z,602.00
2024-05-09T10:48:26.139Z,605.00
2024-05-09T10:49:26.136Z,603.00
2024-05-09T10:50:29.143Z,602.00
2024-05-09T10:51:27.019Z,602.00
2024-05-09T10:52:26.042Z,602.00
2024-05-09T10:53:25.995Z,603.00
2024-05-09T10:54:26.012Z,605.00
2024-05-09T10:55:26.078Z,604.00
2024-05-09T10:56:26.007Z,604.00
2024-05-09T10:57:26.010Z,605.00
2024-05-09T10:58:26.010Z,604.00
2024-05-09T10:59:26.004Z,602.00
2024-05-09T11:00:33.109Z,604.00
2024-05-09T11:01:27.072Z,604.00
2024-05-09T11:02:26.214Z,604.00
2024-05-09T11:03:26.347Z,605.00
2024-05-09T11:04:26.091Z,605.00
2024-05-09T11:05:26.201Z,602.00
2024-05-09T11:06:26.025Z,604.00
2024-05-09T11:07:26.056Z,603.00
2024-05-09T11:08:26.029Z,603.00
2024-05-09T11:09:26.033Z,603.00
2024-05-09T11:10:33.366Z,603.00
2024-05-09T11:11:27.088Z,603.00
2024-05-09T11:12:26.033Z,603.00
2024-05-09T11:13:26.036Z,604.00
2024-05-09T11:14:26.044Z,606.00
2024-05-09T11:15:26.082Z,606.00
2024-05-09T11:16:26.170Z,607.00
2024-05-09T11:17:26.262Z,606.00
2024-05-09T11:18:27.229Z,608.00
2024-05-09T11:19:26.406Z,605.00
2024-05-09T11:20:29.774Z,604.00
2024-05-09T11:21:26.335Z,604.00
2024-05-09T11:22:26.338Z,604.00
2024-05-09T11:23:26.362Z,606.00
2024-05-09T11:24:26.344Z,604.00
2024-05-09T11:25:26.350Z,606.00
2024-05-09T11:26:26.332Z,607.00
2024-05-09T11:27:26.322Z,609.00
2024-05-09T11:28:26.372Z,608.00
2024-05-09T11:29:26.310Z,607.00
2024-05-09T11:30:31.608Z,606.00
2024-05-09T11:31:27.657Z,606.00
2024-05-09T11:32:26.468Z,607.00
2024-05-09T11:33:26.419Z,608.00
2024-05-09T11:34:26.406Z,609.00
2024-05-09T11:35:26.331Z,609.00
2024-05-09T11:36:26.331Z,609.00
2024-05-09T11:37:26.342Z,608.00
2024-05-09T11:38:26.338Z,609.00
2024-05-09T11:39:26.421Z,607.00
2024-05-09T11:40:32.338Z,606.00
2024-05-09T11:41:27.349Z,607.00
2024-05-09T11:42:26.338Z,607.00
2024-05-09T11:43:26.396Z,607.00
2024-05-09T11:44:26.342Z,609.00
2024-05-09T11:45:26.345Z,610.00
2024-05-09T11:46:26.418Z,609.00
2024-05-09T11:47:26.470Z,606.00
2024-05-09T11:48:26.867Z,607.00
2024-05-09T11:49:27.195Z,605.00
2024-05-09T11:50:30.141Z,605.00
2024-05-09T11:51:27.384Z,606.00
2024-05-09T11:52:26.354Z,606.00
2024-05-09T11:53:26.374Z,607.00
2024-05-09T11:54:26.358Z,609.00
2024-05-09T11:55:28.212Z,611.00
2024-05-09T11:56:26.356Z,611.00
2024-05-09T11:57:26.359Z,609.00
2024-05-09T11:58:26.424Z,610.00
2024-05-09T11:59:26.373Z,610.00
2024-05-09T12:00:34.026Z,611.00
2024-05-09T12:01:28.011Z,611.00
2024-05-09T12:02:27.350Z,610.00
2024-05-09T12:03:26.422Z,609.00
2024-05-09T12:04:26.576Z,611.00
2024-05-09T12:05:26.511Z,608.00
2024-05-09T12:06:26.383Z,608.00
2024-05-09T12:07:26.435Z,606.00
2024-05-09T12:08:26.393Z,608.00
2024-05-09T12:09:26.385Z,607.00
2024-05-09T12:10:32.809Z,606.00
2024-05-09T12:11:27.413Z,606.00
2024-05-09T12:12:26.399Z,607.00
2024-05-09T12:13:26.412Z,608.00
2024-05-09T12:14:26.403Z,611.00
2024-05-09T12:15:26.399Z,608.00
2024-05-09T12:16:26.652Z,609.00
2024-05-09T12:17:26.624Z,609.00
2024-05-09T12:18:26.554Z,609.00
2024-05-09T12:19:26.442Z,608.00
2024-05-09T12:20:34.758Z,607.00
2024-05-09T12:21:27.422Z,607.00
2024-05-09T12:22:26.452Z,607.00
2024-05-09T12:23:26.422Z,608.00
2024-05-09T12:24:26.435Z,610.00
2024-05-09T12:25:26.476Z,612.00